In Rescue
 
August 20, 2019 8:23 AM EDT
Present Weather: Light Rain
Weather Information
Wind Direction
  ---
Wind Speed
  00 kt (0 mph)
Wind Gust
  00 kt (0 mph)
Altimeter
30.04 in
Visibility
7 SM
Temperature
21° C
70° F
Dewpoint
21° C
70° F
Humidity
100%
1hr Rain Fall
00.08 in.
24hr Rain Fall
00.10 in.
Sky Condition
Overcast @ 6,500 ft
Broken @ 4,600 ft
Scattered @ 3,100 ft
VFR

METAR KD95 201223Z AUTO 00000KT 7SM -RA SCT031 BKN046 OVC065 21/21 A3004 RMK AO2 P0008 T02070205

FAA Disclaimer: The data displayed is for advisory purposes only and is not to be used for flight planning or operations.